sensor_id;sensor_type;location;lat;lon;timestamp;pressure;altitude;pressure_sealevel;temperature;humidity
28797;BME280;24974;54.444;18.560;2023-06-14T00:01:13;101606.28;;;19.49;47.14
28797;BME280;24974;54.444;18.560;2023-06-14T00:03:44;101599.25;;;19.07;48.23
28797;BME280;24974;54.444;18.560;2023-06-14T00:06:15;101589.91;;;18.78;48.60
28797;BME280;24974;54.444;18.560;2023-06-14T00:08:46;101592.41;;;19.16;47.37
28797;BME280;24974;54.444;18.560;2023-06-14T00:11:17;101590.31;;;19.01;47.76
28797;BME280;24974;54.444;18.560;2023-06-14T00:13:48;101586.38;;;18.48;48.89
28797;BME280;24974;54.444;18.560;2023-06-14T00:16:19;101576.88;;;18.49;49.59
28797;BME280;24974;54.444;18.560;2023-06-14T00:18:51;101577.06;;;18.44;49.42
28797;BME280;24974;54.444;18.560;2023-06-14T00:21:22;101582.97;;;18.63;49.49
28797;BME280;24974;54.444;18.560;2023-06-14T00:23:53;101578.50;;;18.50;49.65
28797;BME280;24974;54.444;18.560;2023-06-14T00:26:24;101577.38;;;18.30;50.58
28797;BME280;24974;54.444;18.560;2023-06-14T00:28:57;101577.25;;;18.60;49.87
28797;BME280;24974;54.444;18.560;2023-06-14T00:31:30;101572.31;;;18.65;50.38
28797;BME280;24974;54.444;18.560;2023-06-14T00:34:02;101566.03;;;18.35;51.04
28797;BME280;24974;54.444;18.560;2023-06-14T00:36:32;101565.44;;;18.63;50.24
28797;BME280;24974;54.444;18.560;2023-06-14T00:39:03;101571.66;;;18.27;51.28
28797;BME280;24974;54.444;18.560;2023-06-14T00:41:34;101575.19;;;18.90;49.77
28797;BME280;24974;54.444;18.560;2023-06-14T00:44:05;101572.84;;;18.59;51.09
28797;BME280;24974;54.444;18.560;2023-06-14T00:46:36;101573.13;;;18.66;50.57
28797;BME280;24974;54.444;18.560;2023-06-14T00:49:08;101573.63;;;18.47;51.38
28797;BME280;24974;54.444;18.560;2023-06-14T00:51:39;101575.88;;;18.87;50.21
28797;BME280;24974;54.444;18.560;2023-06-14T00:54:10;101578.03;;;18.69;51.16
28797;BME280;24974;54.444;18.560;2023-06-14T00:56:43;101570.97;;;18.51;51.81
28797;BME280;24974;54.444;18.560;2023-06-14T00:59:16;101569.72;;;18.81;50.65
28797;BME280;24974;54.444;18.560;2023-06-14T01:01:47;101564.75;;;18.87;50.83
28797;BME280;24974;54.444;18.560;2023-06-14T01:04:19;101566.19;;;19.17;50.27
28797;BME280;24974;54.444;18.560;2023-06-14T01:10:03;101568.09;;;18.59;51.79
28797;BME280;24974;54.444;18.560;2023-06-14T01:12:54;101567.75;;;18.07;52.82
28797;BME280;24974;54.444;18.560;2023-06-14T01:15:29;101565.91;;;18.11;52.90
28797;BME280;24974;54.444;18.560;2023-06-14T01:18:01;101559.41;;;18.07;53.43
28797;BME280;24974;54.444;18.560;2023-06-14T01:20:35;101560.34;;;18.32;53.00
28797;BME280;24974;54.444;18.560;2023-06-14T01:23:08;101554.28;;;17.88;54.31
28797;BME280;24974;54.444;18.560;2023-06-14T01:25:38;101570.66;;;18.31;53.31
28797;BME280;24974;54.444;18.560;2023-06-14T01:28:11;101559.75;;;18.05;53.73
28797;BME280;24974;54.444;18.560;2023-06-14T01:30:44;101561.63;;;18.13;53.98
28797;BME280;24974;54.444;18.560;2023-06-14T01:33:19;101553.59;;;18.12;54.40
28797;BME280;24974;54.444;18.560;2023-06-14T01:35:51;101556.69;;;17.98;54.56
28797;BME280;24974;54.444;18.560;2023-06-14T01:38:23;101550.44;;;18.22;54.71
28797;BME280;24974;54.444;18.560;2023-06-14T01:40:55;101548.84;;;18.33;53.87
28797;BME280;24974;54.444;18.560;2023-06-14T01:43:30;101548.56;;;18.47;53.71
28797;BME280;24974;54.444;18.560;2023-06-14T01:46:01;101552.97;;;18.69;52.88
28797;BME280;24974;54.444;18.560;2023-06-14T01:48:32;101551.03;;;18.28;54.29
28797;BME280;24974;54.444;18.560;2023-06-14T01:51:03;101552.59;;;18.37;54.14
28797;BME280;24974;54.444;18.560;2023-06-14T01:53:34;101547.53;;;18.52;54.13
28797;BME280;24974;54.444;18.560;2023-06-14T01:56:05;101550.66;;;18.50;54.12
28797;BME280;24974;54.444;18.560;2023-06-14T01:58:36;101557.66;;;18.56;54.09
28797;BME280;24974;54.444;18.560;2023-06-14T02:01:08;101543.25;;;18.21;55.02
28797;BME280;24974;54.444;18.560;2023-06-14T02:03:39;101542.66;;;18.49;54.21
28797;BME280;24974;54.444;18.560;2023-06-14T02:06:10;101545.72;;;18.35;54.62
28797;BME280;24974;54.444;18.560;2023-06-14T02:08:41;101548.38;;;18.31;54.87
28797;BME280;24974;54.444;18.560;2023-06-14T02:11:12;101542.91;;;18.02;55.83
28797;BME280;24974;54.444;18.560;2023-06-14T02:13:42;101543.56;;;17.78;56.88
28797;BME280;24974;54.444;18.560;2023-06-14T02:16:13;101539.44;;;18.26;56.13
28797;BME280;24974;54.444;18.560;2023-06-14T02:18:45;101549.81;;;18.37;55.43
28797;BME280;24974;54.444;18.560;2023-06-14T02:21:15;101545.06;;;17.75;57.16
28797;BME280;24974;54.444;18.560;2023-06-14T02:23:46;101538.63;;;18.04;56.47
28797;BME280;24974;54.444;18.560;2023-06-14T02:26:17;101543.63;;;18.11;56.44
28797;BME280;24974;54.444;18.560;2023-06-14T02:28:48;101547.38;;;18.15;56.14
28797;BME280;24974;54.444;18.560;2023-06-14T02:31:18;101541.81;;;17.73;57.42
28797;BME280;24974;54.444;18.560;2023-06-14T02:33:53;101551.97;;;18.11;56.40
28797;BME280;24974;54.444;18.560;2023-06-14T02:36:24;101545.25;;;18.12;56.99
28797;BME280;24974;54.444;18.560;2023-06-14T02:38:55;101545.34;;;18.78;55.21
28797;BME280;24974;54.444;18.560;2023-06-14T02:41:28;101533.88;;;18.26;56.90
28797;BME280;24974;54.444;18.560;2023-06-14T02:43:59;101548.47;;;18.56;55.79
28797;BME280;24974;54.444;18.560;2023-06-14T02:46:33;101549.16;;;18.53;55.91
28797;BME280;24974;54.444;18.560;2023-06-14T02:49:03;101545.44;;;18.69;56.27
28797;BME280;24974;54.444;18.560;2023-06-14T02:51:35;101551.28;;;18.35;56.86
28797;BME280;24974;54.444;18.560;2023-06-14T02:54:06;101541.34;;;18.67;55.88
28797;BME280;24974;54.444;18.560;2023-06-14T02:56:36;101541.38;;;18.46;57.07
28797;BME280;24974;54.444;18.560;2023-06-14T02:59:07;101541.28;;;18.22;57.86
28797;BME280;24974;54.444;18.560;2023-06-14T03:01:40;101536.09;;;18.98;55.85
28797;BME280;24974;54.444;18.560;2023-06-14T03:04:15;101540.25;;;18.59;56.91
28797;BME280;24974;54.444;18.560;2023-06-14T03:06:47;101538.78;;;19.32;54.56
28797;BME280;24974;54.444;18.560;2023-06-14T03:09:23;101542.72;;;19.06;55.59
28797;BME280;24974;54.444;18.560;2023-06-14T03:11:54;101539.16;;;18.72;56.24
28797;BME280;24974;54.444;18.560;2023-06-14T03:14:26;101542.47;;;18.87;56.19
28797;BME280;24974;54.444;18.560;2023-06-14T03:16:57;101538.75;;;19.56;54.45
28797;BME280;24974;54.444;18.560;2023-06-14T03:19:29;101544.59;;;19.26;55.42
28797;BME280;24974;54.444;18.560;2023-06-14T03:22:00;101542.03;;;19.21;55.22
28797;BME280;24974;54.444;18.560;2023-06-14T03:24:35;101541.81;;;19.51;54.83
28797;BME280;24974;54.444;18.560;2023-06-14T03:27:12;101544.13;;;19.12;56.14
28797;BME280;24974;54.444;18.560;2023-06-14T03:29:46;101549.19;;;18.86;56.58
28797;BME280;24974;54.444;18.560;2023-06-14T03:32:17;101548.28;;;19.06;56.40
28797;BME280;24974;54.444;18.560;2023-06-14T03:34:48;101551.22;;;19.34;55.39
28797;BME280;24974;54.444;18.560;2023-06-14T03:37:24;101548.59;;;18.92;56.36
28797;BME280;24974;54.444;18.560;2023-06-14T03:39:55;101551.91;;;19.31;55.46
28797;BME280;24974;54.444;18.560;2023-06-14T03:42:28;101554.00;;;19.34;55.55
28797;BME280;24974;54.444;18.560;2023-06-14T03:44:59;101554.59;;;19.64;54.84
28797;BME280;24974;54.444;18.560;2023-06-14T03:47:31;101561.22;;;19.35;55.55
28797;BME280;24974;54.444;18.560;2023-06-14T03:50:02;101555.03;;;19.29;55.61
28797;BME280;24974;54.444;18.560;2023-06-14T03:52:33;101554.72;;;19.43;55.20
28797;BME280;24974;54.444;18.560;2023-06-14T03:55:04;101559.22;;;19.84;54.43
28797;BME280;24974;54.444;18.560;2023-06-14T03:57:37;101554.88;;;20.39;53.20
28797;BME280;24974;54.444;18.560;2023-06-14T04:00:12;101561.88;;;19.81;54.59
28797;BME280;24974;54.444;18.560;2023-06-14T04:02:47;101555.34;;;20.14;53.25
28797;BME280;24974;54.444;18.560;2023-06-14T04:05:18;101554.03;;;20.51;53.03
28797;BME280;24974;54.444;18.560;2023-06-14T04:07:53;101561.16;;;20.08;53.36
28797;BME280;24974;54.444;18.560;2023-06-14T04:10:26;101565.34;;;20.02;53.53
28797;BME280;24974;54.444;18.560;2023-06-14T04:12:57;101558.59;;;20.44;52.75
28797;BME280;24974;54.444;18.560;2023-06-14T04:15:27;101562.16;;;20.56;52.62
28797;BME280;24974;54.444;18.560;2023-06-14T04:18:00;101565.66;;;20.81;51.93
28797;BME280;24974;54.444;18.560;2023-06-14T04:20:31;101562.53;;;20.55;52.56
28797;BME280;24974;54.444;18.560;2023-06-14T04:25:49;101558.03;;;21.10;51.01
28797;BME280;24974;54.444;18.560;2023-06-14T04:28:21;101555.88;;;21.19;51.33
28797;BME280;24974;54.444;18.560;2023-06-14T04:30:56;101554.69;;;21.20;51.21
28797;BME280;24974;54.444;18.560;2023-06-14T04:33:27;101567.47;;;20.89;51.81
28797;BME280;24974;54.444;18.560;2023-06-14T04:35:58;101559.91;;;21.06;51.17
28797;BME280;24974;54.444;18.560;2023-06-14T04:38:31;101556.06;;;21.42;51.01
28797;BME280;24974;54.444;18.560;2023-06-14T04:41:05;101560.28;;;21.20;51.09
28797;BME280;24974;54.444;18.560;2023-06-14T04:43:36;101559.00;;;21.65;49.49
28797;BME280;24974;54.444;18.560;2023-06-14T04:46:09;101562.72;;;21.21;51.11
28797;BME280;24974;54.444;18.560;2023-06-14T04:48:45;101556.97;;;21.30;50.89
28797;BME280;24974;54.444;18.560;2023-06-14T04:51:16;101563.00;;;21.32;50.71
28797;BME280;24974;54.444;18.560;2023-06-14T04:53:47;101568.75;;;21.55;49.98
28797;BME280;24974;54.444;18.560;2023-06-14T04:56:19;101557.31;;;21.44;50.57
28797;BME280;24974;54.444;18.560;2023-06-14T04:58:50;101559.16;;;22.07;48.86
28797;BME280;24974;54.444;18.560;2023-06-14T05:01:21;101562.88;;;22.11;48.90
28797;BME280;24974;54.444;18.560;2023-06-14T05:03:53;101562.63;;;22.00;49.49
28797;BME280;24974;54.444;18.560;2023-06-14T05:06:24;101575.56;;;22.24;48.39
28797;BME280;24974;54.444;18.560;2023-06-14T05:08:54;101572.19;;;22.54;47.63
28797;BME280;24974;54.444;18.560;2023-06-14T05:11:25;101574.88;;;22.70;47.49
28797;BME280;24974;54.444;18.560;2023-06-14T05:13:57;101572.66;;;22.79;47.28
28797;BME280;24974;54.444;18.560;2023-06-14T05:16:28;101576.38;;;22.25;48.22
28797;BME280;24974;54.444;18.560;2023-06-14T05:18:59;101570.97;;;22.36;47.33
28797;BME280;24974;54.444;18.560;2023-06-14T05:21:31;101569.50;;;22.61;47.07
28797;BME280;24974;54.444;18.560;2023-06-14T05:24:04;101568.75;;;22.06;48.82
28797;BME280;24974;54.444;18.560;2023-06-14T05:26:35;101563.50;;;22.04;48.58
28797;BME280;24974;54.444;18.560;2023-06-14T05:29:05;101566.25;;;22.59;47.74
28797;BME280;24974;54.444;18.560;2023-06-14T05:31:36;101570.03;;;22.28;48.31
28797;BME280;24974;54.444;18.560;2023-06-14T05:34:07;101571.69;;;22.13;48.15
28797;BME280;24974;54.444;18.560;2023-06-14T05:36:37;101568.91;;;22.71;47.00
28797;BME280;24974;54.444;18.560;2023-06-14T05:39:09;101571.50;;;22.22;47.64
28797;BME280;24974;54.444;18.560;2023-06-14T05:41:40;101577.44;;;23.21;45.45
28797;BME280;24974;54.444;18.560;2023-06-14T05:44:11;101574.50;;;23.13;45.70
28797;BME280;24974;54.444;18.560;2023-06-14T05:46:42;101576.81;;;23.08;45.36
28797;BME280;24974;54.444;18.560;2023-06-14T05:49:12;101574.13;;;22.92;46.11
28797;BME280;24974;54.444;18.560;2023-06-14T05:51:43;101578.56;;;23.62;44.27
28797;BME280;24974;54.444;18.560;2023-06-14T05:54:14;101581.19;;;23.05;45.62
28797;BME280;24974;54.444;18.560;2023-06-14T05:56:45;101574.38;;;23.29;44.56
28797;BME280;24974;54.444;18.560;2023-06-14T05:59:15;101575.66;;;24.11;42.95
28797;BME280;24974;54.444;18.560;2023-06-14T06:01:46;101577.91;;;23.98;42.98
28797;BME280;24974;54.444;18.560;2023-06-14T06:04:17;101577.34;;;24.16;42.45
28797;BME280;24974;54.444;18.560;2023-06-14T06:06:48;101582.97;;;23.89;42.58
28797;BME280;24974;54.444;18.560;2023-06-14T06:09:19;101584.34;;;23.99;42.15
28797;BME280;24974;54.444;18.560;2023-06-14T06:11:50;101583.13;;;24.97;40.27
28797;BME280;24974;54.444;18.560;2023-06-14T06:14:21;101582.44;;;24.37;40.59
28797;BME280;24974;54.444;18.560;2023-06-14T06:16:52;101585.13;;;24.60;40.07
28797;BME280;24974;54.444;18.560;2023-06-14T06:19:23;101591.69;;;25.08;38.58
28797;BME280;24974;54.444;18.560;2023-06-14T06:21:54;101587.91;;;24.93;38.24
28797;BME280;24974;54.444;18.560;2023-06-14T06:24:25;101592.59;;;24.78;38.25
28797;BME280;24974;54.444;18.560;2023-06-14T06:26:56;101597.13;;;25.27;37.66
28797;BME280;24974;54.444;18.560;2023-06-14T06:29:26;101596.25;;;25.20;37.85
28797;BME280;24974;54.444;18.560;2023-06-14T06:31:57;101600.34;;;25.29;37.55
28797;BME280;24974;54.444;18.560;2023-06-14T06:34:28;101596.50;;;25.07;38.02
28797;BME280;24974;54.444;18.560;2023-06-14T06:36:59;101605.00;;;24.77;38.72
28797;BME280;24974;54.444;18.560;2023-06-14T06:39:29;101604.19;;;24.77;38.57
28797;BME280;24974;54.444;18.560;2023-06-14T06:42:00;101598.25;;;24.48;38.97
28797;BME280;24974;54.444;18.560;2023-06-14T06:44:39;101599.75;;;25.09;37.71
28797;BME280;24974;54.444;18.560;2023-06-14T06:47:11;101603.59;;;24.00;39.96
28797;BME280;24974;54.444;18.560;2023-06-14T06:49:41;101601.97;;;24.93;38.34
28797;BME280;24974;54.444;18.560;2023-06-14T06:52:12;101603.78;;;24.75;39.71
28797;BME280;24974;54.444;18.560;2023-06-14T06:54:43;101602.44;;;24.99;39.28
28797;BME280;24974;54.444;18.560;2023-06-14T06:57:14;101610.19;;;25.53;37.43
28797;BME280;24974;54.444;18.560;2023-06-14T06:59:44;101610.84;;;25.36;37.80
28797;BME280;24974;54.444;18.560;2023-06-14T07:02:15;101613.56;;;25.25;38.20
28797;BME280;24974;54.444;18.560;2023-06-14T07:04:46;101608.41;;;25.31;38.69
28797;BME280;24974;54.444;18.560;2023-06-14T07:07:17;101606.28;;;24.83;39.41
28797;BME280;24974;54.444;18.560;2023-06-14T07:09:48;101603.03;;;25.15;38.68
28797;BME280;24974;54.444;18.560;2023-06-14T07:12:18;101609.28;;;25.42;38.48
28797;BME280;24974;54.444;18.560;2023-06-14T07:14:49;101608.94;;;25.47;37.76
28797;BME280;24974;54.444;18.560;2023-06-14T07:17:20;101608.47;;;25.38;38.10
28797;BME280;24974;54.444;18.560;2023-06-14T07:19:51;101614.75;;;24.53;39.50
28797;BME280;24974;54.444;18.560;2023-06-14T07:22:22;101612.63;;;24.43;38.83
28797;BME280;24974;54.444;18.560;2023-06-14T07:24:52;101607.00;;;25.10;37.63
28797;BME280;24974;54.444;18.560;2023-06-14T07:27:23;101610.72;;;25.22;38.55
28797;BME280;24974;54.444;18.560;2023-06-14T07:29:54;101611.19;;;24.94;37.62
28797;BME280;24974;54.444;18.560;2023-06-14T07:32:25;101613.78;;;24.39;38.96
28797;BME280;24974;54.444;18.560;2023-06-14T07:34:55;101616.63;;;24.42;39.26
28797;BME280;24974;54.444;18.560;2023-06-14T07:37:26;101616.31;;;24.47;39.31
28797;BME280;24974;54.444;18.560;2023-06-14T07:39:57;101618.22;;;24.73;39.67
28797;BME280;24974;54.444;18.560;2023-06-14T07:42:27;101617.97;;;25.26;38.25
28797;BME280;24974;54.444;18.560;2023-06-14T07:44:59;101616.66;;;24.46;40.54
28797;BME280;24974;54.444;18.560;2023-06-14T07:47:30;101617.41;;;24.73;40.22
28797;BME280;24974;54.444;18.560;2023-06-14T07:50:01;101622.31;;;25.61;38.46
28797;BME280;24974;54.444;18.560;2023-06-14T07:52:31;101622.84;;;25.74;38.56
28797;BME280;24974;54.444;18.560;2023-06-14T07:55:02;101626.16;;;24.64;40.64
28797;BME280;24974;54.444;18.560;2023-06-14T07:57:33;101624.75;;;25.62;39.05
28797;BME280;24974;54.444;18.560;2023-06-14T08:00:04;101616.63;;;25.54;40.12
28797;BME280;24974;54.444;18.560;2023-06-14T08:02:43;101623.84;;;26.06;39.33
28797;BME280;24974;54.444;18.560;2023-06-14T08:05:14;101618.16;;;25.96;39.88
28797;BME280;24974;54.444;18.560;2023-06-14T08:07:44;101622.63;;;26.00;39.30
28797;BME280;24974;54.444;18.560;2023-06-14T08:10:15;101629.25;;;26.36;38.69
28797;BME280;24974;54.444;18.560;2023-06-14T08:12:46;101628.63;;;25.95;40.16
28797;BME280;24974;54.444;18.560;2023-06-14T08:15:17;101624.53;;;25.85;40.76
28797;BME280;24974;54.444;18.560;2023-06-14T08:17:48;101630.31;;;25.55;41.64
28797;BME280;24974;54.444;18.560;2023-06-14T08:20:18;101637.06;;;25.91;41.38
28797;BME280;24974;54.444;18.560;2023-06-14T08:22:49;101627.59;;;26.25;40.48
28797;BME280;24974;54.444;18.560;2023-06-14T08:25:20;101636.34;;;26.05;41.00
28797;BME280;24974;54.444;18.560;2023-06-14T08:27:51;101645.84;;;25.83;41.16
28797;BME280;24974;54.444;18.560;2023-06-14T08:30:22;101632.03;;;26.26;39.78
28797;BME280;24974;54.444;18.560;2023-06-14T08:32:52;101636.44;;;26.19;40.44
28797;BME280;24974;54.444;18.560;2023-06-14T08:35:26;101632.59;;;26.53;39.63
28797;BME280;24974;54.444;18.560;2023-06-14T08:37:57;101640.38;;;26.84;39.44
28797;BME280;24974;54.444;18.560;2023-06-14T08:40:27;101638.06;;;27.18;38.28
28797;BME280;24974;54.444;18.560;2023-06-14T08:43:00;101629.22;;;26.29;38.75
28797;BME280;24974;54.444;18.560;2023-06-14T08:45:30;101635.72;;;26.37;38.29
28797;BME280;24974;54.444;18.560;2023-06-14T08:48:01;101635.13;;;26.83;36.72
28797;BME280;24974;54.444;18.560;2023-06-14T08:50:33;101637.25;;;27.43;34.14
28797;BME280;24974;54.444;18.560;2023-06-14T08:53:05;101646.56;;;27.93;33.69
28797;BME280;24974;54.444;18.560;2023-06-14T08:55:37;101640.94;;;27.75;32.44
28797;BME280;24974;54.444;18.560;2023-06-14T08:58:10;101635.56;;;26.99;34.47
28797;BME280;24974;54.444;18.560;2023-06-14T09:00:44;101636.38;;;26.96;34.53
28797;BME280;24974;54.444;18.560;2023-06-14T09:03:16;101640.09;;;27.32;35.02
28797;BME280;24974;54.444;18.560;2023-06-14T09:05:47;101642.91;;;27.39;35.33
28797;BME280;24974;54.444;18.560;2023-06-14T09:08:18;101632.03;;;27.23;34.23
28797;BME280;24974;54.444;18.560;2023-06-14T09:10:52;101631.22;;;27.23;35.43
28797;BME280;24974;54.444;18.560;2023-06-14T09:13:23;101630.03;;;27.38;36.29
28797;BME280;24974;54.444;18.560;2023-06-14T09:15:53;101630.81;;;27.28;35.12
28797;BME280;24974;54.444;18.560;2023-06-14T09:18:38;101631.94;;;26.98;36.24
28797;BME280;24974;54.444;18.560;2023-06-14T09:21:09;101630.28;;;26.83;37.25
28797;BME280;24974;54.444;18.560;2023-06-14T09:23:40;101629.09;;;26.81;39.87
28797;BME280;24974;54.444;18.560;2023-06-14T09:26:12;101627.72;;;26.42;42.59
28797;BME280;24974;54.444;18.560;2023-06-14T09:28:43;101629.00;;;26.56;42.65
28797;BME280;24974;54.444;18.560;2023-06-14T09:31:15;101633.56;;;26.12;42.51
28797;BME280;24974;54.444;18.560;2023-06-14T09:33:46;101630.28;;;26.00;43.42
28797;BME280;24974;54.444;18.560;2023-06-14T09:36:26;101626.84;;;26.31;44.17
28797;BME280;24974;54.444;18.560;2023-06-14T09:38:58;101628.63;;;25.95;44.79
28797;BME280;24974;54.444;18.560;2023-06-14T09:44:07;101631.63;;;26.27;42.22
28797;BME280;24974;54.444;18.560;2023-06-14T09:46:37;101617.06;;;26.14;42.83
28797;BME280;24974;54.444;18.560;2023-06-14T09:49:08;101625.00;;;26.64;41.73
28797;BME280;24974;54.444;18.560;2023-06-14T09:51:42;101623.72;;;26.54;42.42
28797;BME280;24974;54.444;18.560;2023-06-14T09:54:19;101631.94;;;26.88;41.76
28797;BME280;24974;54.444;18.560;2023-06-14T09:56:51;101625.88;;;26.93;42.84
28797;BME280;24974;54.444;18.560;2023-06-14T09:59:24;101625.50;;;27.01;42.69
28797;BME280;24974;54.444;18.560;2023-06-14T10:01:59;101627.84;;;26.74;44.01
28797;BME280;24974;54.444;18.560;2023-06-14T10:04:33;101619.56;;;26.27;44.17
28797;BME280;24974;54.444;18.560;2023-06-14T10:07:04;101623.91;;;26.10;44.79
28797;BME280;24974;54.444;18.560;2023-06-14T10:09:35;101619.59;;;26.34;44.78
28797;BME280;24974;54.444;18.560;2023-06-14T10:12:06;101620.22;;;26.02;45.61
28797;BME280;24974;54.444;18.560;2023-06-14T10:14:37;101612.19;;;26.88;44.10
28797;BME280;24974;54.444;18.560;2023-06-14T10:17:08;101620.56;;;26.66;44.36
28797;BME280;24974;54.444;18.560;2023-06-14T10:19:42;101614.63;;;27.00;43.51
28797;BME280;24974;54.444;18.560;2023-06-14T10:22:38;101616.31;;;27.44;41.99
28797;BME280;24974;54.444;18.560;2023-06-14T10:25:12;101613.47;;;27.90;40.09
28797;BME280;24974;54.444;18.560;2023-06-14T10:27:44;101614.69;;;27.89;38.90
28797;BME280;24974;54.444;18.560;2023-06-14T10:30:16;101621.56;;;27.27;38.69
28797;BME280;24974;54.444;18.560;2023-06-14T10:35:31;101614.41;;;28.75;36.66
28797;BME280;24974;54.444;18.560;2023-06-14T10:38:11;101608.16;;;28.24;37.93
28797;BME280;24974;54.444;18.560;2023-06-14T10:40:42;101609.84;;;27.90;39.33
28797;BME280;24974;54.444;18.560;2023-06-14T10:43:21;101606.63;;;27.59;38.58
28797;BME280;24974;54.444;18.560;2023-06-14T10:48:40;101608.50;;;28.48;38.43
28797;BME280;24974;54.444;18.560;2023-06-14T10:51:20;101611.28;;;28.55;38.07
28797;BME280;24974;54.444;18.560;2023-06-14T10:53:51;101605.81;;;27.58;39.45
28797;BME280;24974;54.444;18.560;2023-06-14T10:56:28;101609.06;;;27.28;40.93
28797;BME280;24974;54.444;18.560;2023-06-14T10:58:59;101610.13;;;26.77;42.52
28797;BME280;24974;54.444;18.560;2023-06-14T11:04:07;101601.66;;;26.74;42.09
28797;BME280;24974;54.444;18.560;2023-06-14T11:06:46;101601.81;;;27.70;39.46
28797;BME280;24974;54.444;18.560;2023-06-14T11:12:05;101612.25;;;27.59;40.09
28797;BME280;24974;54.444;18.560;2023-06-14T11:14:38;101605.38;;;27.10;41.51
28797;BME280;24974;54.444;18.560;2023-06-14T11:17:08;101607.03;;;27.22;40.64
28797;BME280;24974;54.444;18.560;2023-06-14T11:19:39;101602.19;;;27.12;40.89
28797;BME280;24974;54.444;18.560;2023-06-14T11:22:10;101598.63;;;25.65;44.56
28797;BME280;24974;54.444;18.560;2023-06-14T11:24:40;101602.59;;;26.16;43.00
28797;BME280;24974;54.444;18.560;2023-06-14T11:27:11;101609.44;;;27.20;40.17
28797;BME280;24974;54.444;18.560;2023-06-14T11:29:49;101601.19;;;26.54;41.84
28797;BME280;24974;54.444;18.560;2023-06-14T11:32:20;101596.47;;;26.00;42.85
28797;BME280;24974;54.444;18.560;2023-06-14T11:34:51;101598.78;;;26.56;43.13
28797;BME280;24974;54.444;18.560;2023-06-14T11:37:22;101609.03;;;27.03;40.48
28797;BME280;24974;54.444;18.560;2023-06-14T11:39:57;101600.97;;;27.06;40.91
28797;BME280;24974;54.444;18.560;2023-06-14T11:42:28;101591.38;;;26.23;42.24
28797;BME280;24974;54.444;18.560;2023-06-14T11:44:59;101592.72;;;26.51;41.07
28797;BME280;24974;54.444;18.560;2023-06-14T11:47:33;101599.75;;;27.10;40.43
28797;BME280;24974;54.444;18.560;2023-06-14T11:50:04;101597.94;;;26.45;41.04
28797;BME280;24974;54.444;18.560;2023-06-14T11:52:36;101592.06;;;26.96;39.47
28797;BME280;24974;54.444;18.560;2023-06-14T11:55:06;101592.38;;;26.70;40.07
28797;BME280;24974;54.444;18.560;2023-06-14T11:57:37;101589.53;;;28.41;37.57
28797;BME280;24974;54.444;18.560;2023-06-14T12:00:09;101587.69;;;28.83;36.25
28797;BME280;24974;54.444;18.560;2023-06-14T12:02:43;101585.19;;;29.96;34.62
28797;BME280;24974;54.444;18.560;2023-06-14T12:05:13;101576.47;;;28.68;35.82
28797;BME280;24974;54.444;18.560;2023-06-14T12:07:44;101579.97;;;30.28;33.32
28797;BME280;24974;54.444;18.560;2023-06-14T12:10:15;101581.78;;;30.12;33.62
28797;BME280;24974;54.444;18.560;2023-06-14T12:12:47;101573.19;;;30.19;32.91
28797;BME280;24974;54.444;18.560;2023-06-14T12:15:17;101572.94;;;31.71;31.43
28797;BME280;24974;54.444;18.560;2023-06-14T12:17:48;101573.91;;;30.87;30.82
28797;BME280;24974;54.444;18.560;2023-06-14T12:20:19;101575.91;;;30.90;30.79
28797;BME280;24974;54.444;18.560;2023-06-14T12:22:52;101579.38;;;30.75;32.00
28797;BME280;24974;54.444;18.560;2023-06-14T12:25:27;101582.34;;;30.64;32.43
28797;BME280;24974;54.444;18.560;2023-06-14T12:27:59;101579.50;;;29.06;34.21
28797;BME280;24974;54.444;18.560;2023-06-14T12:30:30;101570.41;;;29.74;33.37
28797;BME280;24974;54.444;18.560;2023-06-14T12:33:01;101581.03;;;28.45;36.92
28797;BME280;24974;54.444;18.560;2023-06-14T12:35:32;101580.63;;;28.46;37.50
28797;BME280;24974;54.444;18.560;2023-06-14T12:38:02;101573.78;;;28.43;36.48
28797;BME280;24974;54.444;18.560;2023-06-14T12:40:34;101571.47;;;28.03;37.14
28797;BME280;24974;54.444;18.560;2023-06-14T12:43:06;101579.41;;;28.51;36.79
28797;BME280;24974;54.444;18.560;2023-06-14T12:45:37;101569.47;;;28.00;37.46
28797;BME280;24974;54.444;18.560;2023-06-14T12:48:07;101568.56;;;28.35;36.40
28797;BME280;24974;54.444;18.560;2023-06-14T12:50:39;101573.38;;;28.38;35.30
28797;BME280;24974;54.444;18.560;2023-06-14T12:53:10;101571.19;;;28.70;34.88
28797;BME280;24974;54.444;18.560;2023-06-14T12:55:41;101575.69;;;30.13;33.52
28797;BME280;24974;54.444;18.560;2023-06-14T12:58:12;101578.94;;;30.76;33.47
28797;BME280;24974;54.444;18.560;2023-06-14T13:00:44;101580.88;;;31.37;32.94
28797;BME280;24974;54.444;18.560;2023-06-14T13:03:15;101579.41;;;32.15;31.56
28797;BME280;24974;54.444;18.560;2023-06-14T13:05:46;101576.69;;;32.68;29.71
28797;BME280;24974;54.444;18.560;2023-06-14T13:08:17;101573.25;;;32.00;30.19
28797;BME280;24974;54.444;18.560;2023-06-14T13:10:48;101565.19;;;30.44;31.33
28797;BME280;24974;54.444;18.560;2023-06-14T13:13:19;101566.72;;;30.18;32.08
28797;BME280;24974;54.444;18.560;2023-06-14T13:15:50;101561.13;;;30.07;33.48
28797;BME280;24974;54.444;18.560;2023-06-14T13:18:21;101563.38;;;29.48;34.59
28797;BME280;24974;54.444;18.560;2023-06-14T13:20:52;101559.16;;;29.22;35.21
28797;BME280;24974;54.444;18.560;2023-06-14T13:23:23;101555.81;;;28.75;36.53